Vitsentzos Kornaros — SXNX — position and weather

sailwx.info

Track history (hours):
 
Tides and Currents Weather Stations Pressure Air Temp Water Temp Dewpoint Dewpoint Depression Visibility Wind Speed Wind Dir Waves Ship Positions

Vitsentzos Kornaros

Last reported at 2015-Apr-28 11:33 UTC. Time now 2015-Apr-28 11:58 UTC.
Position N 37°18' E 023°35'.

Length 128 m; draft 4.5 m.

Type: Passenger vessel. MMSI: 239311000.

Date/timePositionNaut miles runAvg speedWind from/ knotsBaromVisibWave heightAir tempDewpointWater temp
2015-Apr-28 11:33N 37°18' E 023°35'1615.8
2015-Apr-28 10:33N 37°03' E 023°28'1815.9
2015-Apr-28 09:26N 36°46' E 023°21'5210.4
2015-Apr-28 04:25N 35°54' E 023°18'1314.3
2015-Apr-28 03:32N 35°46' E 023°30'1514.8
2015-Apr-28 02:33N 35°34' E 023°39'6 4.4
2015-Apr-28 01:17N 35°39' E 023°37'1013.0
2015-Apr-28 00:31N 35°46' E 023°29'1211.9
2015-Apr-27 23:33N 35°53' E 023°17'10 9.7
2015-Apr-27 22:33N 36°03' E 023°13'19 8.8
2015-Apr-27 20:24N 36°21' E 023°09'2513.8
2015-Apr-27 18:33N 36°45' E 023°21'1414.1
2015-Apr-27 17:34N 36°58' E 023°26'1414.3
2015-Apr-27 16:34N 37°12' E 023°32'1414.3
2015-Apr-27 15:34N 37°26' E 023°37'1413.9
2015-Apr-27 14:33N 37°39' E 023°42'1413.8
2015-Apr-27 13:33N 37°52' E 023°37'5 4.7
2015-Apr-27 12:33N 37°57' E 023°38'0 0.0
2015-Apr-27 11:33N 37°57' E 023°38'0 0.0
2015-Apr-27 10:33N 37°57' E 023°38'0 0.0
2015-Apr-27 09:33N 37°57' E 023°38'0 0.0
2015-Apr-27 08:33N 37°57' E 023°38'0 0.0
2015-Apr-27 07:33N 37°57' E 023°38'0 0.0
2015-Apr-27 06:34N 37°57' E 023°38'0 0.0
2015-Apr-27 05:33N 37°57' E 023°38'0 0.0
2015-Apr-27 04:33N 37°57' E 023°38'9 9.0
2015-Apr-27 03:33N 37°48' E 023°41'1514.7
2015-Apr-27 02:34N 37°33' E 023°42'1615.7
2015-Apr-27 01:34N 37°19' E 023°36'1515.1
2015-Apr-27 00:34N 37°05' E 023°28'1615.5
2015-Apr-26 23:33N 36°50' E 023°23'13 0.8
2015-Apr-26 07:11N 37°03' E 023°28'914.5
2015-Apr-26 06:33N 37°11' E 023°32'1514.6
2015-Apr-26 05:32N 37°25' E 023°37'1414.6
2015-Apr-26 04:33N 37°39' E 023°42'1414.0
2015-Apr-26 03:33N 37°53' E 023°38'4 4.0
2015-Apr-26 02:33N 37°57' E 023°38'0 0.0
2015-Apr-26 01:34N 37°57' E 023°38'0 0.0
2015-Apr-26 00:33N 37°57' E 023°38'0 0.0
2015-Apr-25 23:34N 37°57' E 023°38'0 0.0
2015-Apr-25 22:33N 37°57' E 023°38'0 0.0
2015-Apr-25 21:34N 37°57' E 023°38'0 0.0
2015-Apr-25 20:34N 37°57' E 023°38'5 4.8
2015-Apr-25 19:33N 37°52' E 023°39'1615.7
2015-Apr-25 18:34N 37°38' E 023°48'6515.9
2015-Apr-25 14:29N 36°48' E 024°40'1615.9
2015-Apr-25 13:30N 36°36' E 024°52'1616.3
2015-Apr-25 12:32N 36°28' E 025°09'1414.5
2015-Apr-25 11:32N 36°23' E 025°26'3 2.8
2015-Apr-25 10:33N 36°23' E 025°22'1211.9
2015-Apr-25 09:33N 36°19' E 025°36'9 8.5
2015-Apr-25 08:33N 36°17' E 025°47'1716.0
2015-Apr-25 07:30N 36°01' E 025°51'51 8.6
2015-Apr-25 01:33N 35°21' E 026°31'1914.7
2015-Apr-25 00:14N 35°26' E 026°54'2 2.4
2015-Apr-24 23:28N 35°26' E 026°57'61 2.1
2015-Apr-23 18:33N 35°58' E 025°53'1615.6
2015-Apr-23 17:33N 36°13' E 025°48'7 7.4
2015-Apr-23 16:33N 36°20' E 025°43'1514.9
2015-Apr-23 15:33N 36°19' E 025°25'4 4.1
2015-Apr-23 14:32N 36°23' E 025°26'1312.9
2015-Apr-23 13:33N 36°26' E 025°11'1614.8
2015-Apr-23 12:29N 36°35' E 024°54'7815.0
2015-Apr-23 07:19N 37°34' E 023°51'1114.7
2015-Apr-23 06:33N 37°42' E 023°41'1414.3
2015-Apr-23 05:33N 37°56' E 023°37'1 1.1
2015-Apr-23 04:33N 37°57' E 023°38'0 0.0
2015-Apr-23 03:33N 37°57' E 023°38'0 0.0
2015-Apr-23 02:33N 37°57' E 023°38'0 0.0
2015-Apr-23 01:33N 37°57' E 023°38'0 0.0
2015-Apr-23 00:33N 37°57' E 023°38'0 0.0
2015-Apr-22 23:34N 37°57' E 023°38'0 0.0
2015-Apr-22 22:33N 37°57' E 023°38'0 0.0
2015-Apr-22 21:34N 37°57' E 023°38'1010.1
2015-Apr-22 20:34N 37°47' E 023°41'1515.1
2015-Apr-22 19:33N 37°32' E 023°41'1615.7
2015-Apr-22 18:31N 37°17' E 023°34'1515.8
2015-Apr-22 17:34N 37°02' E 023°28'2315.9
2015-Apr-22 16:07N 36°40' E 023°19'31 0.9
2015-Apr-21 07:34N 37°10' E 023°31'1515.4
2015-Apr-21 06:34N 37°24' E 023°37'1615.6
2015-Apr-21 05:33N 37°40' E 023°42'1515.4
2015-Apr-21 04:34N 37°54' E 023°37'3 2.7
2015-Apr-21 03:33N 37°57' E 023°38'0 0.0
2015-Apr-21 02:33N 37°57' E 023°38'0 0.0
2015-Apr-21 01:34N 37°57' E 023°38'0 0.0
2015-Apr-21 00:34N 37°57' E 023°38'0 0.0
2015-Apr-20 23:34N 37°57' E 023°38'0 0.0
2015-Apr-20 22:34N 37°57' E 023°38'0 0.0
2015-Apr-20 21:34N 37°57' E 023°38'0 0.0
2015-Apr-20 20:34N 37°57' E 023°38'0 0.0
2015-Apr-20 19:34N 37°57' E 023°38'0 0.0
2015-Apr-20 18:34N 37°57' E 023°38'0 0.0
2015-Apr-20 17:34N 37°57' E 023°38'0 0.0
2015-Apr-20 16:34N 37°57' E 023°38'0 0.0
2015-Apr-20 15:34N 37°57' E 023°38'0 0.0
2015-Apr-20 14:34N 37°57' E 023°38'0 0.0
2015-Apr-20 13:34N 37°57' E 023°38'0 0.0
2015-Apr-20 12:33N 37°57' E 023°38'0 0.0
2015-Apr-20 11:34N 37°57' E 023°38'0 0.0
2015-Apr-20 10:33N 37°57' E 023°38'0 0.0
2015-Apr-20 09:34N 37°57' E 023°38'0 0.0
2015-Apr-20 08:33N 37°57' E 023°38'0 0.0
2015-Apr-20 07:34N 37°57' E 023°38'0 0.0
2015-Apr-20 06:34N 37°57' E 023°38'0 0.0
2015-Apr-20 05:34N 37°57' E 023°38'0 0.0
2015-Apr-20 04:33N 37°57' E 023°38'0 0.0
2015-Apr-20 03:33N 37°57' E 023°38'9 8.8
2015-Apr-20 02:33N 37°48' E 023°41'1413.9
2015-Apr-20 01:34N 37°35' E 023°41'2914.5
2015-Apr-19 23:33N 37°07' E 023°29'1514.7
2015-Apr-19 22:31N 36°52' E 023°24'  
Track history (hours):
 
Tides and Currents Weather Stations Pressure Air Temp Water Temp Dewpoint Dewpoint Depression Visibility Wind Speed Wind Dir Waves Ship Positions

Vitsentzos Kornaros

Last reported at 2015-Apr-28 11:33 UTC. Time now 2015-Apr-28 11:58 UTC.
Position N 37°18' E 023°35'.

Length 128 m; draft 4.5 m.

Type: Passenger vessel. MMSI: 239311000.

Date/timePositionNaut miles runAvg speedWind from/ knotsBaromVisibWave heightAir tempDewpointWater temp
2015-Apr-28 11:33N 37°18' E 023°35'1615.8
2015-Apr-28 10:33N 37°03' E 023°28'1815.9
2015-Apr-28 09:26N 36°46' E 023°21'5210.4
2015-Apr-28 04:25N 35°54' E 023°18'1314.3
2015-Apr-28 03:32N 35°46' E 023°30'1514.8
2015-Apr-28 02:33N 35°34' E 023°39'6 4.4
2015-Apr-28 01:17N 35°39' E 023°37'1013.0
2015-Apr-28 00:31N 35°46' E 023°29'1211.9
2015-Apr-27 23:33N 35°53' E 023°17'10 9.7
2015-Apr-27 22:33N 36°03' E 023°13'19 8.8
2015-Apr-27 20:24N 36°21' E 023°09'2513.8
2015-Apr-27 18:33N 36°45' E 023°21'1414.1
2015-Apr-27 17:34N 36°58' E 023°26'1414.3
2015-Apr-27 16:34N 37°12' E 023°32'1414.3
2015-Apr-27 15:34N 37°26' E 023°37'1413.9
2015-Apr-27 14:33N 37°39' E 023°42'1413.8
2015-Apr-27 13:33N 37°52' E 023°37'5 4.7
2015-Apr-27 12:33N 37°57' E 023°38'0 0.0
2015-Apr-27 11:33N 37°57' E 023°38'0 0.0
2015-Apr-27 10:33N 37°57' E 023°38'0 0.0
2015-Apr-27 09:33N 37°57' E 023°38'0 0.0
2015-Apr-27 08:33N 37°57' E 023°38'0 0.0
2015-Apr-27 07:33N 37°57' E 023°38'0 0.0
2015-Apr-27 06:34N 37°57' E 023°38'0 0.0
2015-Apr-27 05:33N 37°57' E 023°38'0 0.0
2015-Apr-27 04:33N 37°57' E 023°38'9 9.0
2015-Apr-27 03:33N 37°48' E 023°41'1514.7
2015-Apr-27 02:34N 37°33' E 023°42'1615.7
2015-Apr-27 01:34N 37°19' E 023°36'1515.1
2015-Apr-27 00:34N 37°05' E 023°28'1615.5
2015-Apr-26 23:33N 36°50' E 023°23'13 0.8
2015-Apr-26 07:11N 37°03' E 023°28'914.5
2015-Apr-26 06:33N 37°11' E 023°32'1514.6
2015-Apr-26 05:32N 37°25' E 023°37'1414.6
2015-Apr-26 04:33N 37°39' E 023°42'1414.0
2015-Apr-26 03:33N 37°53' E 023°38'4 4.0
2015-Apr-26 02:33N 37°57' E 023°38'0 0.0
2015-Apr-26 01:34N 37°57' E 023°38'0 0.0
2015-Apr-26 00:33N 37°57' E 023°38'0 0.0
2015-Apr-25 23:34N 37°57' E 023°38'0 0.0
2015-Apr-25 22:33N 37°57' E 023°38'0 0.0
2015-Apr-25 21:34N 37°57' E 023°38'0 0.0
2015-Apr-25 20:34N 37°57' E 023°38'5 4.8
2015-Apr-25 19:33N 37°52' E 023°39'1615.7
2015-Apr-25 18:34N 37°38' E 023°48'6515.9
2015-Apr-25 14:29N 36°48' E 024°40'1615.9
2015-Apr-25 13:30N 36°36' E 024°52'1616.3
2015-Apr-25 12:32N 36°28' E 025°09'1414.5
2015-Apr-25 11:32N 36°23' E 025°26'3 2.8
2015-Apr-25 10:33N 36°23' E 025°22'1211.9
2015-Apr-25 09:33N 36°19' E 025°36'9 8.5
2015-Apr-25 08:33N 36°17' E 025°47'1716.0
2015-Apr-25 07:30N 36°01' E 025°51'51 8.6
2015-Apr-25 01:33N 35°21' E 026°31'1914.7
2015-Apr-25 00:14N 35°26' E 026°54'2 2.4
2015-Apr-24 23:28N 35°26' E 026°57'61 2.1
2015-Apr-23 18:33N 35°58' E 025°53'1615.6
2015-Apr-23 17:33N 36°13' E 025°48'7 7.4
2015-Apr-23 16:33N 36°20' E 025°43'1514.9
2015-Apr-23 15:33N 36°19' E 025°25'4 4.1
2015-Apr-23 14:32N 36°23' E 025°26'1312.9
2015-Apr-23 13:33N 36°26' E 025°11'1614.8
2015-Apr-23 12:29N 36°35' E 024°54'7815.0
2015-Apr-23 07:19N 37°34' E 023°51'1114.7
2015-Apr-23 06:33N 37°42' E 023°41'1414.3
2015-Apr-23 05:33N 37°56' E 023°37'1 1.1
2015-Apr-23 04:33N 37°57' E 023°38'0 0.0
2015-Apr-23 03:33N 37°57' E 023°38'0 0.0
2015-Apr-23 02:33N 37°57' E 023°38'0 0.0
2015-Apr-23 01:33N 37°57' E 023°38'0 0.0
2015-Apr-23 00:33N 37°57' E 023°38'0 0.0
2015-Apr-22 23:34N 37°57' E 023°38'0 0.0
2015-Apr-22 22:33N 37°57' E 023°38'0 0.0
2015-Apr-22 21:34N 37°57' E 023°38'1010.1
2015-Apr-22 20:34N 37°47' E 023°41'1515.1
2015-Apr-22 19:33N 37°32' E 023°41'1615.7
2015-Apr-22 18:31N 37°17' E 023°34'1515.8
2015-Apr-22 17:34N 37°02' E 023°28'2315.9
2015-Apr-22 16:07N 36°40' E 023°19'31 0.9
2015-Apr-21 07:34N 37°10' E 023°31'1515.4
2015-Apr-21 06:34N 37°24' E 023°37'1615.6
2015-Apr-21 05:33N 37°40' E 023°42'1515.4
2015-Apr-21 04:34N 37°54' E 023°37'3 2.7
2015-Apr-21 03:33N 37°57' E 023°38'0 0.0
2015-Apr-21 02:33N 37°57' E 023°38'0 0.0
2015-Apr-21 01:34N 37°57' E 023°38'0 0.0
2015-Apr-21 00:34N 37°57' E 023°38'0 0.0
2015-Apr-20 23:34N 37°57' E 023°38'0 0.0
2015-Apr-20 22:34N 37°57' E 023°38'0 0.0
2015-Apr-20 21:34N 37°57' E 023°38'0 0.0
2015-Apr-20 20:34N 37°57' E 023°38'0 0.0
2015-Apr-20 19:34N 37°57' E 023°38'0 0.0
2015-Apr-20 18:34N 37°57' E 023°38'0 0.0
2015-Apr-20 17:34N 37°57' E 023°38'0 0.0
2015-Apr-20 16:34N 37°57' E 023°38'0 0.0
2015-Apr-20 15:34N 37°57' E 023°38'0 0.0
2015-Apr-20 14:34N 37°57' E 023°38'0 0.0
2015-Apr-20 13:34N 37°57' E 023°38'0 0.0
2015-Apr-20 12:33N 37°57' E 023°38'0 0.0
2015-Apr-20 11:34N 37°57' E 023°38'0 0.0
2015-Apr-20 10:33N 37°57' E 023°38'0 0.0
2015-Apr-20 09:34N 37°57' E 023°38'0 0.0
2015-Apr-20 08:33N 37°57' E 023°38'0 0.0
2015-Apr-20 07:34N 37°57' E 023°38'0 0.0
2015-Apr-20 06:34N 37°57' E 023°38'0 0.0
2015-Apr-20 05:34N 37°57' E 023°38'0 0.0
2015-Apr-20 04:33N 37°57' E 023°38'0 0.0
2015-Apr-20 03:33N 37°57' E 023°38'9 8.8
2015-Apr-20 02:33N 37°48' E 023°41'1413.9
2015-Apr-20 01:34N 37°35' E 023°41'2914.5
2015-Apr-19 23:33N 37°07' E 023°29'1514.7
2015-Apr-19 22:31N 36°52' E 023°24'  

Dump ship's entire track history